Time;durP1;ratioP1;P1;durP2;ratioP2;P2;SDS_P1;SDS_P2;PMS_P1;PMS_P2;Temp;Humidity;BMP_temperature;BMP_pressure;BME280_temperature;BME280_humidity;BME280_pressure;Samples;Min_cycle;Max_cycle;Signal;HPM_P1;HPM_P2
2023/10/07 00:01:28;;;;;;;7.40;3.90;;;;;;;15.40;61.34;99255.36;232993;216;139362;-62
2023/10/07 00:06:34;;;;;;;8.40;3.90;;;;;;;15.38;61.42;99254.95;232949;215;138048;-62
2023/10/07 00:11:38;;;;;;;8.60;4.20;;;;;;;15.36;61.34;99252.58;232944;215;149422;-61
2023/10/07 00:16:45;;;;;;;7.60;4.20;;;;;;;15.35;61.37;99242.36;233005;215;138995;-66
2023/10/07 00:21:58;;;;;;;9.00;5.10;;;;;;;15.33;61.38;99237.12;233092;213;136929;-60
2023/10/07 00:27:04;;;;;;;9.20;4.70;;;;;;;15.28;61.33;99223.95;232955;215;149561;-63
2023/10/07 00:32:10;;;;;;;8.50;4.50;;;;;;;15.25;61.26;99218.63;232908;215;140162;-62
2023/10/07 00:37:18;;;;;;;9.80;4.60;;;;;;;15.23;61.26;99216.29;232946;215;137334;-61
2023/10/07 00:42:22;;;;;;;8.70;4.70;;;;;;;15.19;61.04;99214.85;233039;215;151138;-65
2023/10/07 00:47:26;;;;;;;9.30;4.70;;;;;;;15.13;61.09;99203.53;232979;214;138973;-64
2023/10/07 00:52:33;;;;;;;6.80;4.30;;;;;;;15.07;61.09;99187.88;233017;216;138238;-60
2023/10/07 00:57:47;;;;;;;8.80;4.40;;;;;;;15.03;61.00;99176.91;232964;215;149779;-61
2023/10/07 01:02:51;;;;;;;9.00;3.80;;;;;;;15.01;60.84;99165.31;233043;215;139157;-59
2023/10/07 01:07:55;;;;;;;6.40;3.60;;;;;;;14.99;60.61;99158.86;233043;215;136944;-60
2023/10/07 01:13:03;;;;;;;5.00;3.10;;;;;;;15.01;60.22;99165.35;232988;215;150851;-62
2023/10/07 01:18:07;;;;;;;6.50;3.40;;;;;;;15.00;59.95;99164.45;232864;215;139957;-62
2023/10/07 01:23:19;;;;;;;7.30;3.10;;;;;;;15.00;59.75;99155.56;232992;215;136925;-61
2023/10/07 01:28:26;;;;;;;6.00;3.20;;;;;;;15.01;59.53;99151.20;233023;215;149830;-57
2023/10/07 01:33:39;;;;;;;8.30;3.30;;;;;;;15.01;59.24;99151.77;232884;215;140109;-58
2023/10/07 01:38:52;;;;;;;6.10;3.60;;;;;;;15.02;59.17;99141.50;233059;215;137158;-58
2023/10/07 01:44:00;;;;;;;5.90;3.10;;;;;;;15.02;59.18;99138.79;233071;215;148964;-59
2023/10/07 01:49:07;;;;;;;7.80;3.50;;;;;;;15.02;58.98;99133.10;233052;215;139185;-58
2023/10/07 01:54:11;;;;;;;4.80;2.90;;;;;;;15.01;58.93;99125.63;233001;215;137331;-59
2023/10/07 02:04:26;;;;;;;5.90;3.60;;;;;;;15.04;58.78;99113.06;233027;215;139964;-60
2023/10/07 02:09:40;;;;;;;6.80;3.30;;;;;;;15.04;58.66;99095.55;232974;215;137109;-60
2023/10/07 02:14:44;;;;;;;8.10;3.60;;;;;;;15.05;58.58;99095.48;232939;215;149975;-60
2023/10/07 02:19:53;;;;;;;5.50;3.10;;;;;;;15.06;58.64;99095.73;233016;215;139789;-61
2023/10/07 02:25:03;;;;;;;7.60;3.70;;;;;;;15.06;58.63;99098.40;233121;215;136783;-59
2023/10/07 02:30:19;;;;;;;7.40;3.60;;;;;;;15.06;58.65;99093.23;232945;215;149087;-69
2023/10/07 02:35:30;;;;;;;7.80;3.40;;;;;;;15.07;58.71;99079.81;233084;215;139320;-60
2023/10/07 02:40:48;;;;;;;9.70;3.50;;;;;;;15.07;58.56;99079.92;233084;215;136878;-61
2023/10/07 02:45:53;;;;;;;6.60;3.40;;;;;;;15.07;58.45;99076.38;232943;215;149309;-60
2023/10/07 02:51:06;;;;;;;6.50;3.70;;;;;;;15.08;58.55;99076.25;232988;215;138495;-61
2023/10/07 02:56:18;;;;;;;9.00;4.00;;;;;;;15.07;58.83;99072.48;232906;215;137607;-60
2023/10/07 03:01:26;;;;;;;7.00;3.70;;;;;;;15.02;59.00;99065.34;232982;215;149481;-60
2023/10/07 03:06:31;;;;;;;9.10;4.20;;;;;;;14.97;59.14;99059.72;233003;215;139615;-59
2023/10/07 03:11:48;;;;;;;11.20;4.50;;;;;;;14.95;59.33;99056.67;233069;215;136986;-60
2023/10/07 03:16:59;;;;;;;8.80;3.60;;;;;;;14.90;59.40;99054.83;232954;215;148630;-59
2023/10/07 03:22:09;;;;;;;6.90;3.50;;;;;;;14.89;59.59;99057.99;232968;215;139916;-61
2023/10/07 03:27:22;;;;;;;11.50;5.30;;;;;;;14.89;59.56;99045.95;233043;215;137036;-62
2023/10/07 03:32:34;;;;;;;8.70;4.00;;;;;;;14.88;59.67;99045.48;232897;214;149930;-63
2023/10/07 03:37:44;;;;;;;7.10;4.00;;;;;;;14.88;59.63;99049.45;232903;215;139132;-62
2023/10/07 03:42:49;;;;;;;6.40;3.40;;;;;;;14.87;59.68;99042.77;233001;215;136992;-64
2023/10/07 03:47:52;;;;;;;7.90;3.50;;;;;;;14.87;59.78;99039.55;232981;215;149476;-60
2023/10/07 03:52:58;;;;;;;7.10;3.30;;;;;;;14.88;59.78;99037.50;232936;216;139661;-63
2023/10/07 03:58:02;;;;;;;6.00;3.30;;;;;;;14.92;59.48;99041.15;232959;215;137339;-61
2023/10/07 04:03:09;;;;;;;6.50;3.40;;;;;;;14.97;59.22;99036.98;232940;215;150216;-64
2023/10/07 04:08:13;;;;;;;5.60;3.00;;;;;;;15.03;58.92;99030.77;232910;215;140883;-63
2023/10/07 04:13:24;;;;;;;6.80;3.30;;;;;;;15.10;58.59;99024.69;233008;215;138700;-61
2023/10/07 04:18:34;;;;;;;6.30;3.20;;;;;;;15.16;58.40;99022.02;233023;215;150058;-63
2023/10/07 04:23:43;;;;;;;6.10;3.20;;;;;;;15.22;58.06;99021.04;233032;215;138831;-64
2023/10/07 04:28:48;;;;;;;8.90;3.10;;;;;;;15.26;57.83;99014.64;232949;215;137749;-64
2023/10/07 04:33:53;;;;;;;5.80;3.40;;;;;;;15.29;57.77;99020.10;232943;215;150106;-63
2023/10/07 04:38:58;;;;;;;10.00;4.20;;;;;;;15.31;57.65;99025.82;232931;215;140339;-63
2023/10/07 04:49:37;;;;;;;6.70;3.40;;;;;;;15.34;57.38;99008.95;233009;215;150199;-63
2023/10/07 04:54:43;;;;;;;8.30;3.70;;;;;;;15.35;57.23;99027.23;232908;215;140388;-65
2023/10/07 04:59:47;;;;;;;8.30;3.90;;;;;;;15.39;57.14;99035.22;232897;215;137662;-62
2023/10/07 05:04:51;;;;;;;7.20;3.60;;;;;;;15.41;56.88;99031.31;232960;215;149285;-60
2023/10/07 05:09:56;;;;;;;6.20;3.50;;;;;;;15.44;56.80;99035.67;232854;215;140076;-60
2023/10/07 05:15:05;;;;;;;11.90;3.70;;;;;;;15.49;56.52;99038.64;233080;215;137002;-58
2023/10/07 05:20:27;;;;;;;9.70;4.00;;;;;;;15.53;56.38;99037.75;232971;215;151416;-59
2023/10/07 05:25:35;;;;;;;12.10;4.50;;;;;;;15.58;56.14;99042.00;232931;215;139352;-59
2023/10/07 05:30:50;;;;;;;7.60;3.90;;;;;;;15.63;55.86;99026.63;232948;215;137189;-59
2023/10/07 05:36:14;;;;;;;7.30;3.90;;;;;;;15.67;55.54;99023.79;232944;215;151225;-59
2023/10/07 05:41:22;;;;;;;9.40;3.70;;;;;;;15.71;55.53;99031.88;232967;215;139239;-60
2023/10/07 05:46:27;;;;;;;8.10;4.10;;;;;;;15.74;55.62;99032.33;233071;215;137295;-66
2023/10/07 05:51:31;;;;;;;11.70;4.30;;;;;;;15.77;55.60;99034.53;233015;215;150443;-64
2023/10/07 05:56:35;;;;;;;8.50;4.10;;;;;;;15.80;55.66;99044.36;232966;215;139741;-62
2023/10/07 06:01:38;;;;;;;7.50;3.70;;;;;;;15.82;55.57;99053.46;232918;216;136892;-65
2023/10/07 06:06:43;;;;;;;9.00;3.90;;;;;;;15.83;55.46;99052.45;233132;215;150506;-72
2023/10/07 06:11:48;;;;;;;9.60;4.30;;;;;;;15.85;55.42;99045.67;232912;214;138758;-66
2023/10/07 06:16:52;;;;;;;10.40;4.00;;;;;;;15.83;55.33;99044.59;233019;215;137318;-60
2023/10/07 06:21:59;;;;;;;64.20;45.30;;;;;;;15.86;55.58;99040.82;233076;215;149724;-60
2023/10/07 06:27:06;;;;;;;60.80;43.60;;;;;;;15.91;55.36;99034.30;232936;214;138777;-60
2023/10/07 06:32:23;;;;;;;16.50;10.40;;;;;;;15.96;54.93;99041.55;233051;215;138076;-59
2023/10/07 06:37:29;;;;;;;10.90;4.10;;;;;;;16.04;54.85;99046.55;232976;215;149852;-62
2023/10/07 06:42:34;;;;;;;8.30;4.20;;;;;;;16.15;54.66;99052.10;232960;215;140107;-60
2023/10/07 06:47:38;;;;;;;10.80;4.10;;;;;;;16.21;54.05;99049.09;232854;215;137545;-63
2023/10/07 06:52:43;;;;;;;9.20;4.10;;;;;;;16.26;53.97;99061.54;232975;215;150390;-61
2023/10/07 06:57:47;;;;;;;;;;;;;;;16.30;53.61;99057.77;232933;215;139759;-62
2023/10/07 07:02:57;;;;;;;9.60;4.60;;;;;;;16.32;53.49;99049.23;232934;215;134724;-64
2023/10/07 07:08:04;;;;;;;10.40;4.20;;;;;;;16.37;53.40;99052.27;232957;215;149927;-60
2023/10/07 07:13:15;;;;;;;11.00;4.60;;;;;;;16.39;53.30;99053.70;232884;215;139373;-61
2023/10/07 07:18:25;;;;;;;11.10;4.20;;;;;;;16.40;53.49;99045.73;232990;215;137362;-64
2023/10/07 07:23:36;;;;;;;13.90;6.60;;;;;;;16.41;53.45;99031.30;233083;216;149881;-65
2023/10/07 07:28:43;;;;;;;11.30;4.70;;;;;;;16.43;53.39;99032.15;232879;215;140929;-63
2023/10/07 07:33:50;;;;;;;9.10;3.90;;;;;;;16.46;53.47;99035.48;233053;215;137151;-64
2023/10/07 07:38:55;;;;;;;10.10;4.50;;;;;;;16.51;53.57;99027.87;233045;215;150282;-65
2023/10/07 07:44:10;;;;;;;14.30;4.70;;;;;;;16.62;53.80;99022.11;232807;215;139935;-64
2023/10/07 07:49:19;;;;;;;10.10;4.70;;;;;;;16.72;53.59;99019.95;233019;215;138064;-66
2023/10/07 07:54:24;;;;;;;10.70;4.70;;;;;;;16.81;53.47;99024.80;233003;215;150270;-67
2023/10/07 07:59:32;;;;;;;7.50;4.50;;;;;;;16.87;53.59;99024.82;232833;214;139766;-68
2023/10/07 08:05:02;;;;;;;10.00;4.70;;;;;;;16.91;53.76;99017.65;232919;215;136993;-68
2023/10/07 08:10:10;;;;;;;11.30;4.80;;;;;;;16.99;53.73;99035.91;232873;215;148779;-63
2023/10/07 08:20:27;;;;;;;185.10;144.50;;;;;;;17.09;53.92;99037.18;232897;215;137150;-64
2023/10/07 08:30:46;;;;;;;14.80;5.00;;;;;;;17.19;54.17;99040.73;233023;215;139321;-60
2023/10/07 08:35:51;;;;;;;11.40;4.20;;;;;;;17.24;54.32;99032.96;232894;215;137948;-61
2023/10/07 08:41:07;;;;;;;17.20;9.00;;;;;;;17.27;54.22;99023.94;232963;215;149124;-59
2023/10/07 08:46:20;;;;;;;11.70;5.20;;;;;;;17.33;54.43;99017.49;232912;215;139800;-62
2023/10/07 08:51:24;;;;;;;11.70;4.30;;;;;;;17.45;54.83;99002.95;233022;214;137787;-61
2023/10/07 08:56:30;;;;;;;11.10;4.10;;;;;;;17.57;54.98;98994.08;232945;215;149543;-59
2023/10/07 09:01:35;;;;;;;8.00;3.90;;;;;;;17.75;54.92;98990.09;232922;215;138835;-61
2023/10/07 09:06:50;;;;;;;47.30;33.30;;;;;;;17.95;54.84;98990.81;233043;215;137247;-61
2023/10/07 09:12:01;;;;;;;11.20;4.70;;;;;;;18.13;54.51;98997.88;233018;215;150037;-60
2023/10/07 09:17:09;;;;;;;11.20;4.20;;;;;;;18.30;54.32;98985.67;232809;215;138872;-61
2023/10/07 09:22:15;;;;;;;8.70;3.90;;;;;;;18.45;54.14;98982.85;233051;215;137202;-63
2023/10/07 09:27:36;;;;;;;7.30;4.00;;;;;;;18.58;53.98;98976.54;232935;215;149913;-63
2023/10/07 09:32:44;;;;;;;9.80;3.80;;;;;;;18.74;54.12;98965.91;232910;215;137689;-60
2023/10/07 09:37:54;;;;;;;9.70;4.80;;;;;;;18.91;53.79;98967.31;232961;214;137436;-61
2023/10/07 09:42:58;;;;;;;10.00;4.40;;;;;;;19.08;53.86;98960.38;233066;215;149917;-60
2023/10/07 09:48:05;;;;;;;8.60;3.90;;;;;;;19.17;53.82;98959.64;233012;215;139933;-57
2023/10/07 09:53:14;;;;;;;9.00;3.70;;;;;;;19.29;53.65;98953.08;233047;215;136771;-60
2023/10/07 09:58:47;;;;;;;7.00;3.60;;;;;;;19.45;53.22;98964.85;232881;215;150296;-58
2023/10/07 10:04:11;;;;;;;9.80;3.90;;;;;;;19.60;52.58;98964.23;232961;216;139688;-58
2023/10/07 10:09:23;;;;;;;9.00;4.70;;;;;;;19.73;52.57;98950.52;232959;215;139835;-59
2023/10/07 10:14:55;;;;;;;7.80;3.50;;;;;;;19.84;52.07;98959.23;232861;215;150181;-58
2023/10/07 10:20:09;;;;;;;8.80;3.20;;;;;;;19.92;52.17;98953.63;233041;215;139875;-57
2023/10/07 10:25:26;;;;;;;7.50;3.90;;;;;;;20.11;51.73;98946.43;232991;216;138668;-59
2023/10/07 10:30:30;;;;;;;8.80;3.30;;;;;;;20.31;51.37;98942.05;232864;215;150149;-59
2023/10/07 10:35:40;;;;;;;10.40;3.60;;;;;;;20.45;50.99;98936.79;232858;215;139701;-58
2023/10/07 10:40:47;;;;;;;8.50;3.80;;;;;;;20.45;50.42;98932.63;232993;215;137959;-57
2023/10/07 10:46:05;;;;;;;7.00;3.00;;;;;;;20.49;50.53;98927.83;232901;215;148236;-56
2023/10/07 10:51:09;;;;;;;10.80;3.50;;;;;;;20.54;50.35;98920.88;232985;215;138653;-59
2023/10/07 10:56:13;;;;;;;8.10;4.10;;;;;;;20.60;50.04;98924.45;232761;215;137259;-60
2023/10/07 11:01:19;;;;;;;9.70;3.70;;;;;;;20.61;50.10;98912.97;232894;214;150072;-59
2023/10/07 11:06:26;;;;;;;8.50;3.60;;;;;;;20.57;50.10;98903.33;232848;215;139033;-59
2023/10/07 11:11:35;;;;;;;8.60;3.70;;;;;;;20.55;50.10;98894.70;232799;214;137063;-58
2023/10/07 11:16:50;;;;;;;6.70;3.50;;;;;;;20.64;50.02;98894.05;232957;215;150245;-58
2023/10/07 11:21:56;;;;;;;7.20;3.80;;;;;;;20.65;49.16;98890.67;232890;215;138842;-58
2023/10/07 11:27:02;;;;;;;6.20;3.40;;;;;;;20.61;49.34;98885.42;232871;215;137939;-59
2023/10/07 11:32:07;;;;;;;10.40;3.60;;;;;;;20.74;49.32;98885.74;232851;215;149386;-58
2023/10/07 11:37:21;;;;;;;27.30;22.50;;;;;;;20.87;48.75;98882.73;232799;215;141116;-57
2023/10/07 11:42:26;;;;;;;7.60;4.20;;;;;;;20.95;48.46;98874.54;232744;214;137575;-58
2023/10/07 11:47:30;;;;;;;7.70;3.70;;;;;;;20.98;47.69;98870.97;232720;215;150296;-59
2023/10/07 11:52:35;;;;;;;7.70;4.10;;;;;;;20.90;48.12;98878.46;232782;214;138825;-59
2023/10/07 11:57:40;;;;;;;8.80;3.90;;;;;;;20.94;48.30;98875.12;232857;215;137110;-58
2023/10/07 12:02:45;;;;;;;11.00;4.70;;;;;;;20.95;48.48;98869.77;232788;214;148680;-59
2023/10/07 12:07:48;;;;;;;7.80;3.80;;;;;;;20.93;47.90;98875.38;232872;215;138017;-59
2023/10/07 12:12:52;;;;;;;9.80;4.20;;;;;;;20.85;47.94;98874.48;232828;215;136878;-59
2023/10/07 12:17:57;;;;;;;8.00;3.70;;;;;;;20.78;48.03;98866.39;232774;215;149843;-59
2023/10/07 12:23:02;;;;;;;8.50;3.70;;;;;;;20.72;48.12;98864.73;232808;215;140014;-58
2023/10/07 12:28:08;;;;;;;10.70;4.00;;;;;;;20.73;48.26;98863.50;232837;214;137000;-59
2023/10/07 12:33:14;;;;;;;10.50;3.80;;;;;;;20.68;48.02;98860.29;232779;214;149702;-58
2023/10/07 12:38:35;;;;;;;48.90;35.70;;;;;;;20.59;48.28;98848.80;232717;214;139773;-58
2023/10/07 12:43:38;;;;;;;11.80;4.60;;;;;;;20.56;47.88;98848.94;232789;214;137306;-59
2023/10/07 12:48:46;;;;;;;9.00;4.30;;;;;;;20.55;47.62;98845.61;232740;214;149835;-59
2023/10/07 12:53:58;;;;;;;8.70;4.10;;;;;;;20.62;47.81;98838.08;232828;214;140200;-58
2023/10/07 12:59:17;;;;;;;11.60;4.30;;;;;;;20.68;47.75;98837.39;232859;214;136909;-58
2023/10/07 13:04:29;;;;;;;9.20;4.20;;;;;;;20.79;47.79;98830.48;232873;215;149451;-59
2023/10/07 13:09:34;;;;;;;6.20;3.60;;;;;;;20.92;47.43;98834.58;232851;215;140024;-59
2023/10/07 13:14:40;;;;;;;9.10;4.30;;;;;;;20.87;47.04;98834.08;232931;215;137063;-58
2023/10/07 13:19:48;;;;;;;8.20;4.10;;;;;;;20.75;47.32;98829.18;232959;215;149462;-59
2023/10/07 13:24:51;;;;;;;8.20;4.30;;;;;;;20.69;47.69;98830.45;232825;215;138451;-58
2023/10/07 13:29:55;;;;;;;7.70;4.00;;;;;;;20.68;47.86;98825.84;232836;214;136897;-58
2023/10/07 13:35:00;;;;;;;7.60;3.60;;;;;;;20.66;47.84;98829.51;232896;215;150795;-59
2023/10/07 13:40:15;;;;;;;10.90;4.70;;;;;;;20.64;47.85;98835.51;232976;214;139564;-58
2023/10/07 13:45:24;;;;;;;6.80;3.80;;;;;;;20.65;47.72;98845.15;233037;214;137987;-59
2023/10/07 13:50:30;;;;;;;8.20;4.60;;;;;;;20.61;47.97;98850.61;232948;214;149366;-59
2023/10/07 14:00:46;;;;;;;16.50;4.60;;;;;;;20.55;48.57;98844.39;232964;214;137154;-57
2023/10/07 14:05:55;;;;;;;11.20;4.40;;;;;;;20.50;48.69;98846.06;233067;215;150251;-56
2023/10/07 14:10:59;;;;;;;8.50;4.00;;;;;;;20.50;49.16;98849.34;233087;215;139967;-56
2023/10/07 14:16:10;;;;;;;7.70;3.80;;;;;;;20.47;49.71;98854.32;233023;215;137675;-56
2023/10/07 14:21:25;;;;;;;9.00;4.20;;;;;;;20.41;49.78;98857.90;233056;215;149687;-57
2023/10/07 14:26:33;;;;;;;11.00;4.10;;;;;;;20.31;50.16;98854.04;233033;215;139903;-57
2023/10/07 14:31:37;;;;;;;10.20;4.10;;;;;;;20.24;50.68;98839.64;232813;214;137988;-58
2023/10/07 14:36:42;;;;;;;8.50;4.00;;;;;;;20.17;51.38;98848.05;232965;214;149080;-57
2023/10/07 14:41:46;;;;;;;9.70;4.50;;;;;;;20.11;51.91;98838.56;232771;214;139754;-56
2023/10/07 14:46:50;;;;;;;7.20;3.90;;;;;;;20.06;51.97;98814.54;232905;214;141172;-58
2023/10/07 14:51:54;;;;;;;26.70;14.80;;;;;;;20.05;52.31;98813.75;232892;214;149076;-58
2023/10/07 14:57:03;;;;;;;;;;;;;;;20.04;52.34;98810.56;232876;215;138231;-56
2023/10/07 15:02:08;;;;;;;7.40;3.70;;;;;;;20.05;52.39;98812.36;232919;215;135313;-57
2023/10/07 15:07:12;;;;;;;7.90;4.30;;;;;;;20.02;52.57;98814.65;232829;215;150456;-56
2023/10/07 15:12:16;;;;;;;8.70;4.30;;;;;;;19.98;52.71;98808.51;232818;214;138874;-56
2023/10/07 15:17:21;;;;;;;6.30;4.20;;;;;;;19.94;52.85;98815.81;232905;215;138241;-56
2023/10/07 15:22:25;;;;;;;7.70;4.10;;;;;;;19.92;53.10;98814.58;232701;214;149374;-57
2023/10/07 15:27:29;;;;;;;9.90;4.00;;;;;;;19.89;53.30;98815.79;232749;215;138289;-56
2023/10/07 15:32:34;;;;;;;8.70;4.00;;;;;;;19.87;53.52;98809.39;232775;214;137514;-56
2023/10/07 15:37:38;;;;;;;5.80;4.00;;;;;;;19.83;53.72;98784.77;233011;215;151801;-55
2023/10/07 15:42:45;;;;;;;8.10;4.10;;;;;;;19.80;53.83;98781.84;232782;214;140544;-55
2023/10/07 15:47:49;;;;;;;;;;;;;;;19.77;53.90;98776.96;233001;215;138267;-55
2023/10/07 15:52:53;;;;;;;6.60;3.60;;;;;;;19.71;54.13;98770.65;232889;215;149300;-57
2023/10/07 15:57:57;;;;;;;7.40;3.60;;;;;;;19.69;54.48;98771.77;232841;214;139067;-56
2023/10/07 16:03:03;;;;;;;148.20;109.90;;;;;;;19.69;54.77;98765.34;232643;214;137071;-57
2023/10/07 16:08:08;;;;;;;10.70;5.70;;;;;;;19.74;54.60;98758.15;233003;215;149652;-57
2023/10/07 16:13:13;;;;;;;8.10;4.00;;;;;;;19.72;54.30;98758.37;232972;214;138402;-57
2023/10/07 16:18:18;;;;;;;8.20;4.10;;;;;;;19.68;54.05;98752.65;232882;215;137031;-59
2023/10/07 16:23:22;;;;;;;7.40;3.40;;;;;;;19.67;54.09;98741.23;232780;214;150203;-56
2023/10/07 16:28:26;;;;;;;7.50;3.70;;;;;;;19.68;53.99;98727.06;232749;214;139301;-57
2023/10/07 16:33:32;;;;;;;9.20;4.00;;;;;;;19.68;54.03;98717.52;232870;214;137051;-58
2023/10/07 16:38:40;;;;;;;6.60;3.80;;;;;;;19.70;53.90;98710.30;232833;214;149709;-56
2023/10/07 16:43:45;;;;;;;8.10;3.80;;;;;;;19.73;53.92;98705.54;232749;215;137923;-56
2023/10/07 16:48:51;;;;;;;7.60;3.40;;;;;;;19.77;53.72;98704.95;232710;215;137112;-58
2023/10/07 16:53:54;;;;;;;7.20;3.50;;;;;;;19.77;53.69;98696.61;232772;214;150286;-57
2023/10/07 16:58:58;;;;;;;8.70;3.70;;;;;;;19.79;53.92;98694.91;232901;215;140584;-57
2023/10/07 17:04:02;;;;;;;10.00;3.30;;;;;;;19.80;54.00;98701.37;232710;214;139490;-56
2023/10/07 17:09:09;;;;;;;7.70;4.00;;;;;;;19.80;54.21;98716.11;232851;215;149259;-56
2023/10/07 17:14:13;;;;;;;6.30;3.40;;;;;;;19.82;54.65;98726.99;232800;214;139761;-57
2023/10/07 17:19:17;;;;;;;8.70;3.70;;;;;;;19.83;54.47;98736.21;232840;215;137846;-57
2023/10/07 17:24:21;;;;;;;6.80;3.70;;;;;;;19.79;55.26;98741.23;232857;215;149828;-56
2023/10/07 17:29:25;;;;;;;6.90;3.80;;;;;;;19.69;56.04;98738.84;232911;215;138850;-56
2023/10/07 17:34:30;;;;;;;9.30;3.30;;;;;;;19.59;56.83;98753.52;232916;215;137118;-57
2023/10/07 17:39:33;;;;;;;6.50;3.40;;;;;;;19.47;57.97;98762.20;232943;214;150214;-56
2023/10/07 17:44:38;;;;;;;7.10;3.60;;;;;;;19.31;59.38;98769.95;233002;215;138986;-57
2023/10/07 17:49:42;;;;;;;10.60;3.50;;;;;;;19.14;60.39;98772.58;232938;214;137663;-57
2023/10/07 17:54:47;;;;;;;5.20;3.10;;;;;;;19.03;60.95;98758.43;233004;215;150877;-57
2023/10/07 17:59:51;;;;;;;7.20;3.20;;;;;;;18.93;61.62;98760.64;232917;215;139794;-56
2023/10/07 18:04:56;;;;;;;8.90;3.80;;;;;;;18.88;61.57;98769.45;233017;215;137842;-56
2023/10/07 18:10:01;;;;;;;9.50;3.30;;;;;;;18.79;62.10;98768.16;233023;215;150467;-53
2023/10/07 18:15:06;;;;;;;9.70;4.00;;;;;;;18.72;62.43;98757.05;233028;215;139786;-56
2023/10/07 18:20:13;;;;;;;6.50;3.10;;;;;;;18.68;62.54;98767.42;232968;215;137093;-58
2023/10/07 18:25:20;;;;;;;8.40;3.60;;;;;;;18.67;62.76;98773.33;232946;215;149161;-58
2023/10/07 18:30:24;;;;;;;8.40;3.40;;;;;;;18.66;63.14;98783.77;232925;215;138865;-59
2023/10/07 18:35:28;;;;;;;8.40;3.60;;;;;;;18.64;64.07;98794.45;232986;215;138554;-58
2023/10/07 18:40:32;;;;;;;7.40;3.80;;;;;;;18.59;65.51;98798.86;232899;215;151272;-57
2023/10/07 18:45:36;;;;;;;9.50;3.70;;;;;;;18.52;66.68;98799.86;232863;215;139583;-58
2023/10/07 18:50:40;;;;;;;7.90;3.60;;;;;;;18.35;67.80;98803.77;232868;215;138433;-57
2023/10/07 18:55:44;;;;;;;9.00;3.80;;;;;;;18.19;68.96;98806.23;232901;215;151590;-59
2023/10/07 19:00:50;;;;;;;7.70;4.00;;;;;;;18.05;69.77;98805.46;232788;215;139653;-58
2023/10/07 19:05:55;;;;;;;9.90;4.20;;;;;;;17.95;70.56;98805.41;232752;214;138047;-57
2023/10/07 19:11:14;;;;;;;7.70;3.90;;;;;;;17.85;71.29;98799.70;232790;214;150326;-57
2023/10/07 19:16:17;;;;;;;8.40;4.20;;;;;;;17.80;71.70;98796.40;232933;214;138977;-57
2023/10/07 19:21:22;;;;;;;10.20;4.10;;;;;;;17.71;72.37;98792.95;232962;214;136901;-58
2023/10/07 19:26:25;;;;;;;8.00;3.90;;;;;;;17.63;72.42;98788.25;232831;214;150605;-58
2023/10/07 19:31:29;;;;;;;7.60;4.00;;;;;;;17.55;72.70;98777.74;232814;215;138804;-57
2023/10/07 19:36:34;;;;;;;6.80;3.30;;;;;;;17.51;72.87;98768.23;232812;214;137728;-58
2023/10/07 19:41:40;;;;;;;9.90;4.00;;;;;;;17.53;72.88;98766.27;232825;215;149898;-56
2023/10/07 19:46:44;;;;;;;7.60;3.80;;;;;;;17.58;72.69;98763.49;232791;214;139638;-58
2023/10/07 19:51:49;;;;;;;10.70;4.20;;;;;;;17.57;72.45;98766.24;232975;214;137058;-58
2023/10/07 19:56:53;;;;;;;111.10;83.90;;;;;;;17.58;72.55;98764.54;232762;214;149615;-58
2023/10/07 20:01:57;;;;;;;13.10;4.80;;;;;;;17.65;72.53;98751.68;232801;214;139204;-58
2023/10/07 20:07:03;;;;;;;7.60;3.50;;;;;;;17.75;72.01;98746.64;232762;214;137765;-58
2023/10/07 20:12:09;;;;;;;7.00;3.60;;;;;;;17.78;71.65;98738.27;232724;214;149344;-58
2023/10/07 20:17:13;;;;;;;7.10;3.10;;;;;;;17.81;71.46;98733.12;232760;214;139720;-57
2023/10/07 20:22:17;;;;;;;7.20;3.80;;;;;;;17.79;71.28;98728.85;232765;214;139451;-59
2023/10/07 20:27:22;;;;;;;23.90;18.50;;;;;;;17.82;71.09;98726.96;232769;214;149916;-59
2023/10/07 20:32:26;;;;;;;16.00;10.80;;;;;;;17.83;71.06;98724.67;232620;214;139668;-62
2023/10/07 20:37:33;;;;;;;6.70;3.50;;;;;;;17.88;70.83;98725.64;232740;214;137906;-58
2023/10/07 20:42:41;;;;;;;5.50;2.80;;;;;;;17.91;70.30;98717.20;232796;214;150385;-59
2023/10/07 20:47:46;;;;;;;4.50;3.10;;;;;;;17.98;69.88;98706.19;232999;214;140120;-59
2023/10/07 20:52:50;;;;;;;7.90;3.50;;;;;;;18.01;69.66;98697.29;232927;214;138293;-59
2023/10/07 20:57:54;;;;;;;7.70;3.20;;;;;;;18.02;69.29;98685.34;232930;215;149816;-58
2023/10/07 21:02:58;;;;;;;7.30;3.20;;;;;;;18.04;69.11;98677.41;232932;215;139153;-58
2023/10/07 21:08:04;;;;;;;5.40;3.00;;;;;;;18.07;68.81;98664.20;233012;215;137046;-57
2023/10/07 21:13:08;;;;;;;7.40;3.00;;;;;;;18.11;68.69;98663.06;232994;215;149339;-57
2023/10/07 21:18:12;;;;;;;7.30;2.90;;;;;;;18.21;68.22;98666.60;233031;216;139979;-59
2023/10/07 21:23:16;;;;;;;7.50;3.10;;;;;;;18.30;67.81;98660.40;233030;216;138009;-60
2023/10/07 21:28:20;;;;;;;9.80;3.20;;;;;;;18.33;67.25;98655.82;233062;215;150135;-58
2023/10/07 21:33:24;;;;;;;6.60;3.70;;;;;;;18.33;66.89;98652.26;233052;215;140601;-59
2023/10/07 21:38:28;;;;;;;10.50;3.50;;;;;;;18.33;66.65;98650.31;232988;215;137561;-58
2023/10/07 21:43:33;;;;;;;6.90;3.10;;;;;;;18.36;66.69;98645.10;233075;215;149836;-58
2023/10/07 21:48:38;;;;;;;7.70;2.90;;;;;;;18.41;66.11;98632.95;233069;216;140320;-56
2023/10/07 21:53:46;;;;;;;5.40;2.80;;;;;;;18.42;65.84;98621.14;233072;215;137275;-58
2023/10/07 21:58:52;;;;;;;8.00;3.20;;;;;;;18.45;65.66;98617.80;233058;215;150450;-58
2023/10/07 22:03:55;;;;;;;7.60;3.00;;;;;;;18.49;65.39;98605.32;233037;216;138626;-58
2023/10/07 22:09:00;;;;;;;7.20;3.20;;;;;;;18.51;65.29;98599.39;233079;215;136865;-58
2023/10/07 22:14:05;;;;;;;7.30;3.50;;;;;;;18.54;65.08;98599.13;232951;215;149359;-56
2023/10/07 22:19:09;;;;;;;6.20;3.20;;;;;;;18.52;65.27;98593.70;233000;215;137972;-57
2023/10/07 22:24:17;;;;;;;9.70;4.00;;;;;;;18.51;65.06;98592.01;233027;215;138749;-57
2023/10/07 22:29:22;;;;;;;6.20;3.20;;;;;;;18.49;64.95;98598.12;233012;215;149776;-57
2023/10/07 22:34:26;;;;;;;6.30;3.30;;;;;;;18.52;65.05;98611.90;233050;215;140968;-58
2023/10/07 22:39:32;;;;;;;6.60;3.70;;;;;;;18.48;65.15;98625.40;233043;216;137150;-57
2023/10/07 22:44:38;;;;;;;7.90;3.40;;;;;;;18.37;66.38;98629.69;233032;216;151896;-58
2023/10/07 22:49:45;;;;;;;9.80;3.30;;;;;;;18.19;68.68;98638.51;233090;215;139648;-57
2023/10/07 22:55:13;;;;;;;5.80;2.80;;;;;;;17.96;70.39;98641.52;232987;215;137353;-57
2023/10/07 23:00:20;;;;;;;9.20;3.50;;;;;;;17.81;71.81;98638.91;232979;214;149083;-58
2023/10/07 23:05:23;;;;;;;7.30;3.20;;;;;;;17.71;72.51;98632.16;232995;213;138935;-57
2023/10/07 23:10:35;;;;;;;6.20;2.90;;;;;;;17.61;73.16;98627.20;233034;215;136927;-59
2023/10/07 23:15:40;;;;;;;7.50;3.30;;;;;;;17.51;73.71;98623.48;233008;215;150037;-58
2023/10/07 23:20:49;;;;;;;6.10;3.30;;;;;;;17.46;73.80;98620.54;232865;215;138883;-60
2023/10/07 23:25:57;;;;;;;6.40;3.30;;;;;;;17.50;73.81;98622.16;233077;215;137609;-61
2023/10/07 23:31:44;;;;;;;8.90;3.90;;;;;;;17.57;73.73;98625.83;232975;215;151665;-56
2023/10/07 23:36:29;;;;;;;8.40;3.40;;;;;;;17.66;74.04;98633.32;232834;215;139624;-58
2023/10/07 23:41:33;;;;;;;7.00;3.40;;;;;;;17.77;73.99;98641.14;233093;215;138382;-57
2023/10/07 23:46:38;;;;;;;10.70;3.90;;;;;;;17.75;74.16;98635.02;232964;215;149853;-57
2023/10/07 23:51:45;;;;;;;7.70;4.10;;;;;;;17.71;74.50;98641.39;232854;214;140183;-56
2023/10/07 23:56:49;;;;;;;9.60;3.80;;;;;;;17.68;74.73;98645.52;232872;215;137703;-58
